createdAt,value
2022-12-15T00:00:50.924Z,59.46
2022-12-15T00:01:50.832Z,62.68
2022-12-15T00:02:50.929Z,58.01
2022-12-15T00:03:50.885Z,75.57
2022-12-15T00:04:50.829Z,66.55
2022-12-15T00:05:50.823Z,64.78
2022-12-15T00:06:50.884Z,57.04
2022-12-15T00:07:50.791Z,53.98
2022-12-15T00:08:50.781Z,58.33
2022-12-15T00:09:50.776Z,60.42
2022-12-15T00:10:50.772Z,61.23
2022-12-15T00:11:50.764Z,61.71
2022-12-15T00:12:51.742Z,66.06
2022-12-15T00:13:50.747Z,63.00
2022-12-15T00:14:50.727Z,61.71
2022-12-15T00:15:52.331Z,60.26
2022-12-15T00:16:52.326Z,66.06
2022-12-15T00:17:50.876Z,68.32
2022-12-15T00:18:50.703Z,63.33
2022-12-15T00:19:50.728Z,63.49
2022-12-15T00:20:50.692Z,62.68
2022-12-15T00:21:50.690Z,50.60
2022-12-15T00:22:50.681Z,63.97
2022-12-15T00:23:50.660Z,51.88
2022-12-15T00:24:50.670Z,70.25
2022-12-15T00:25:50.663Z,68.80
2022-12-15T00:28:50.380Z,56.24
2022-12-15T00:29:50.370Z,66.55
2022-12-15T00:30:51.105Z,61.87
2022-12-15T00:31:50.418Z,62.20
2022-12-15T00:32:50.327Z,65.26
2022-12-15T00:33:50.359Z,66.23
2022-12-15T00:34:50.317Z,62.36
2022-12-15T00:35:50.312Z,57.36
2022-12-15T00:36:51.403Z,49.15
2022-12-15T00:37:51.382Z,49.47
2022-12-15T00:38:51.367Z,57.69
2022-12-15T00:39:52.374Z,59.30
2022-12-15T00:40:51.359Z,61.39
2022-12-15T00:41:51.363Z,59.46
2022-12-15T00:42:51.360Z,61.23
2022-12-15T00:43:51.355Z,52.69
2022-12-15T00:44:51.333Z,62.84
2022-12-15T00:45:51.337Z,68.16
2022-12-15T00:46:51.440Z,69.45
2022-12-15T00:47:51.325Z,60.91
2022-12-15T00:48:51.331Z,65.26
2022-12-15T00:49:51.298Z,64.61
2022-12-15T00:50:51.288Z,47.70
2022-12-15T00:51:51.287Z,60.91
2022-12-15T00:52:51.279Z,62.84
2022-12-15T00:53:51.262Z,59.14
2022-12-15T00:54:51.263Z,61.55
2022-12-15T00:55:51.248Z,68.00
2022-12-15T00:56:51.280Z,71.87
2022-12-15T00:57:51.236Z,68.96
2022-12-15T00:58:51.228Z,61.55
2022-12-15T00:59:51.221Z,68.64
2022-12-15T01:00:51.208Z,72.51
2022-12-15T01:01:51.301Z,73.96
2022-12-15T01:02:51.532Z,62.68
2022-12-15T01:03:51.256Z,64.13
2022-12-15T01:04:51.178Z,58.97
2022-12-15T01:05:51.170Z,43.67
2022-12-15T01:06:51.167Z,65.26
2022-12-15T01:07:51.154Z,69.93
2022-12-15T01:08:51.151Z,57.36
2022-12-15T01:09:51.148Z,61.87
2022-12-15T01:10:51.132Z,53.82
2022-12-15T01:11:51.162Z,62.68
2022-12-15T01:12:51.120Z,69.29
2022-12-15T01:13:51.119Z,67.68
2022-12-15T01:14:51.130Z,64.13
2022-12-15T01:15:51.164Z,68.96
2022-12-15T01:16:51.086Z,73.15
2022-12-15T01:17:51.082Z,62.04
2022-12-15T01:18:51.082Z,61.23
2022-12-15T01:19:51.074Z,64.94
2022-12-15T01:20:51.067Z,63.33
2022-12-15T01:21:52.081Z,67.19
2022-12-15T01:22:51.070Z,60.59
2022-12-15T01:23:51.033Z,61.23
2022-12-15T01:24:51.045Z,62.84
2022-12-15T01:25:51.023Z,65.90
2022-12-15T01:26:51.015Z,61.07
2022-12-15T01:27:51.004Z,60.75
2022-12-15T01:28:51.004Z,59.78
2022-12-15T01:29:50.996Z,62.52
2022-12-15T01:30:50.981Z,55.75
2022-12-15T01:31:51.052Z,67.84
2022-12-15T01:32:50.963Z,65.10
2022-12-15T01:33:50.958Z,61.23
2022-12-15T01:34:50.964Z,65.10
2022-12-15T01:35:50.945Z,61.39
2022-12-15T01:36:50.935Z,69.29
2022-12-15T01:37:50.933Z,45.12
2022-12-15T01:38:54.324Z,46.73
2022-12-15T01:39:51.930Z,46.25
2022-12-15T01:40:50.916Z,54.30
2022-12-15T01:41:50.904Z,69.77
2022-12-15T01:42:50.892Z,65.42
2022-12-15T01:43:50.882Z,55.91
2022-12-15T01:44:50.880Z,60.59
2022-12-15T01:45:50.874Z,58.01
2022-12-15T01:46:50.913Z,45.76
2022-12-15T01:47:50.862Z,53.66
2022-12-15T01:48:50.856Z,70.90
2022-12-15T01:49:50.841Z,61.55
2022-12-15T01:50:50.843Z,64.29
2022-12-15T01:51:50.831Z,64.78
2022-12-15T01:52:50.826Z,60.91
2022-12-15T01:53:50.820Z,60.59
2022-12-15T01:54:50.849Z,64.94
2022-12-15T01:55:50.802Z,63.81
2022-12-15T01:56:50.801Z,69.61
2022-12-15T01:57:50.788Z,51.40
2022-12-15T01:58:50.774Z,56.88
2022-12-15T01:59:50.796Z,63.00
2022-12-15T02:00:50.782Z,62.84
2022-12-15T02:01:50.898Z,68.96
2022-12-15T02:02:50.830Z,58.65
2022-12-15T02:03:50.745Z,49.47
2022-12-15T02:04:50.732Z,67.19
2022-12-15T02:05:50.731Z,67.03
2022-12-15T02:06:50.719Z,72.03
2022-12-15T02:07:50.713Z,62.36
2022-12-15T02:08:50.696Z,66.55
2022-12-15T02:09:50.703Z,64.13
2022-12-15T02:10:50.690Z,65.74
2022-12-15T02:11:50.670Z,74.12
2022-12-15T02:12:50.667Z,47.53
2022-12-15T02:13:50.660Z,61.07
2022-12-15T02:14:50.654Z,61.39
2022-12-15T02:15:50.717Z,58.01
2022-12-15T02:16:50.642Z,58.33
2022-12-15T02:17:50.630Z,60.91
2022-12-15T02:18:50.623Z,66.55
2022-12-15T02:19:50.630Z,65.90
2022-12-15T02:20:50.615Z,65.10
2022-12-15T02:21:50.599Z,58.65
2022-12-15T02:22:50.602Z,47.21
2022-12-15T02:23:50.589Z,61.39
2022-12-15T02:24:50.581Z,61.55
2022-12-15T02:25:50.859Z,62.04
2022-12-15T02:26:50.568Z,56.07
2022-12-15T02:27:50.549Z,58.33
2022-12-15T02:28:50.559Z,48.98
2022-12-15T02:29:50.620Z,61.87
2022-12-15T02:30:50.537Z,47.53
2022-12-15T02:31:50.724Z,59.94
2022-12-15T02:32:50.511Z,63.49
2022-12-15T02:33:51.513Z,55.27
2022-12-15T02:34:50.519Z,45.44
2022-12-15T02:35:50.509Z,54.62
2022-12-15T02:36:50.493Z,65.90
2022-12-15T02:37:50.479Z,57.36
2022-12-15T02:38:50.470Z,46.57
2022-12-15T02:39:50.461Z,66.23
2022-12-15T02:40:50.489Z,51.24
2022-12-15T02:41:50.452Z,58.65
2022-12-15T02:42:50.435Z,67.19
2022-12-15T02:43:50.436Z,71.38
2022-12-15T02:44:50.434Z,64.45
2022-12-15T02:45:50.506Z,52.53
2022-12-15T02:46:50.418Z,67.68
2022-12-15T02:47:50.407Z,61.23
2022-12-15T02:48:50.395Z,63.81
2022-12-15T02:49:50.391Z,59.94
2022-12-15T02:50:50.380Z,61.39
2022-12-15T02:51:50.405Z,73.64
2022-12-15T02:52:50.383Z,61.55
2022-12-15T02:53:50.370Z,61.07
2022-12-15T02:54:50.359Z,59.78
2022-12-15T02:55:50.544Z,61.23
2022-12-15T02:56:50.346Z,61.71
2022-12-15T02:57:50.325Z,61.71
2022-12-15T02:58:50.321Z,63.33
2022-12-15T02:59:50.381Z,64.94
2022-12-15T03:00:50.361Z,65.10
2022-12-15T03:01:50.584Z,69.45
2022-12-15T03:02:50.478Z,66.06
2022-12-15T03:03:50.287Z,59.94
2022-12-15T03:04:50.283Z,63.81
2022-12-15T03:05:50.274Z,69.13
2022-12-15T03:06:50.277Z,65.26
2022-12-15T03:07:50.269Z,79.12
2022-12-15T03:08:50.244Z,63.49
2022-12-15T03:09:50.237Z,61.39
2022-12-15T03:10:50.229Z,67.03
2022-12-15T03:11:50.234Z,61.71
2022-12-15T03:12:50.224Z,59.14
2022-12-15T03:13:50.211Z,67.35
2022-12-15T03:14:50.212Z,65.74
2022-12-15T03:15:50.209Z,59.62
2022-12-15T03:16:50.277Z,75.89
2022-12-15T03:17:50.196Z,74.12
2022-12-15T03:18:50.186Z,69.45
2022-12-15T03:19:50.169Z,72.51
2022-12-15T03:20:50.169Z,84.11
2022-12-15T03:21:50.171Z,67.19
2022-12-15T03:22:50.157Z,65.90
2022-12-15T03:23:50.148Z,70.25
2022-12-15T03:24:50.141Z,53.33
2022-12-15T03:25:50.129Z,64.29
2022-12-15T03:26:50.266Z,62.20
2022-12-15T03:27:50.109Z,60.42
2022-12-15T03:28:50.606Z,57.20
2022-12-15T03:29:50.099Z,60.75
2022-12-15T03:30:50.590Z,61.07
2022-12-15T03:31:50.379Z,59.46
2022-12-15T03:32:50.074Z,60.75
2022-12-15T03:33:50.076Z,59.94
2022-12-15T03:34:50.060Z,66.23
2022-12-15T03:35:50.681Z,60.10
2022-12-15T03:36:50.047Z,60.91
2022-12-15T03:37:50.039Z,67.35
2022-12-15T03:38:50.041Z,61.07
2022-12-15T03:39:50.035Z,72.03
2022-12-15T03:40:50.096Z,64.61
2022-12-15T03:41:50.022Z,62.04
2022-12-15T03:42:50.043Z,63.49
2022-12-15T03:43:50.175Z,63.00
2022-12-15T03:44:49.993Z,64.94
2022-12-15T03:45:50.084Z,61.55
2022-12-15T03:46:49.970Z,66.23
2022-12-15T03:47:50.619Z,71.54
2022-12-15T03:48:49.953Z,69.13
2022-12-15T03:49:50.528Z,62.68
2022-12-15T03:50:49.937Z,63.81
2022-12-15T03:51:49.939Z,70.25
2022-12-15T03:52:49.920Z,67.51
2022-12-15T03:53:49.927Z,61.39
2022-12-15T03:54:49.908Z,64.61
2022-12-15T03:55:49.903Z,65.74
2022-12-15T03:56:49.934Z,69.45
2022-12-15T03:57:49.888Z,67.35
2022-12-15T03:58:49.885Z,62.52
2022-12-15T03:59:49.865Z,66.55
2022-12-15T04:00:49.857Z,65.74
2022-12-15T04:01:50.042Z,67.35
2022-12-15T04:02:50.181Z,58.65
2022-12-15T04:03:49.930Z,81.53
2022-12-15T04:04:49.824Z,62.68
2022-12-15T04:05:49.833Z,62.52
2022-12-15T04:06:49.808Z,65.10
2022-12-15T04:07:49.800Z,65.58
2022-12-15T04:08:49.868Z,68.64
2022-12-15T04:09:49.795Z,71.22
2022-12-15T04:10:49.782Z,74.60
2022-12-15T04:11:49.812Z,72.35
2022-12-15T04:12:49.767Z,64.13
2022-12-15T04:13:49.750Z,68.32
2022-12-15T04:14:49.750Z,66.06
2022-12-15T04:15:49.739Z,63.97
2022-12-15T04:16:49.796Z,63.00
2022-12-15T04:17:49.723Z,68.96
2022-12-15T04:18:49.719Z,76.70
2022-12-15T04:19:49.708Z,78.47
2022-12-15T04:20:50.344Z,68.16
2022-12-15T04:21:49.698Z,68.64
2022-12-15T04:22:49.701Z,68.96
2022-12-15T04:23:49.685Z,73.80
2022-12-15T04:24:50.536Z,66.55
2022-12-15T04:25:50.664Z,64.94
2022-12-15T04:26:49.666Z,65.58
2022-12-15T04:27:49.650Z,64.94
2022-12-15T04:28:49.644Z,66.06
2022-12-15T04:29:49.637Z,80.24
2022-12-15T04:30:49.661Z,79.76
2022-12-15T04:31:49.618Z,68.16
2022-12-15T04:32:50.293Z,70.42
2022-12-15T04:33:49.599Z,65.74
2022-12-15T04:34:49.620Z,75.57
2022-12-15T04:35:49.860Z,66.87
2022-12-15T04:36:49.574Z,76.05
2022-12-15T04:37:49.561Z,66.55
2022-12-15T04:38:50.564Z,74.77
2022-12-15T04:39:49.561Z,68.32
2022-12-15T04:40:49.539Z,64.94
2022-12-15T04:41:49.530Z,67.68
2022-12-15T04:42:49.524Z,72.67
2022-12-15T04:43:49.616Z,79.44
2022-12-15T04:44:50.223Z,67.35
2022-12-15T04:45:49.571Z,67.19
2022-12-15T04:46:49.500Z,65.42
2022-12-15T04:47:49.487Z,66.39
2022-12-15T04:48:49.476Z,70.58
2022-12-15T04:49:49.477Z,72.03
2022-12-15T04:50:49.844Z,74.93
2022-12-15T04:51:49.464Z,73.80
2022-12-15T04:52:49.454Z,72.83
2022-12-15T04:53:49.439Z,65.10
2022-12-15T04:54:49.436Z,67.35
2022-12-15T04:55:49.435Z,73.64
2022-12-15T04:56:50.032Z,67.03
2022-12-15T04:57:49.408Z,67.84
2022-12-15T04:58:49.391Z,73.15
2022-12-15T04:59:49.399Z,71.06
2022-12-15T05:00:50.034Z,68.00
2022-12-15T05:01:49.476Z,67.03
2022-12-15T05:02:49.887Z,72.19
2022-12-15T05:03:49.365Z,81.21
2022-12-15T05:04:49.472Z,67.35
2022-12-15T05:05:49.349Z,66.87
2022-12-15T05:06:49.341Z,77.02
2022-12-15T05:07:49.330Z,65.26
2022-12-15T05:08:50.267Z,66.23
2022-12-15T05:09:49.327Z,64.45
2022-12-15T05:10:50.041Z,70.25
2022-12-15T05:11:49.302Z,67.84
2022-12-15T05:12:49.294Z,68.80
2022-12-15T05:13:49.280Z,63.97
2022-12-15T05:14:49.407Z,62.68
2022-12-15T05:15:49.309Z,69.77
2022-12-15T05:16:49.327Z,67.84
2022-12-15T05:17:49.254Z,67.51
2022-12-15T05:18:49.242Z,77.67
2022-12-15T05:19:49.239Z,66.55
2022-12-15T05:20:50.128Z,65.10
2022-12-15T05:21:49.226Z,65.26
2022-12-15T05:22:49.212Z,67.51
2022-12-15T05:23:49.218Z,66.87
2022-12-15T05:24:49.194Z,71.70
2022-12-15T05:25:49.201Z,65.74
2022-12-15T05:26:52.684Z,74.93
2022-12-15T05:27:50.175Z,71.22
2022-12-15T05:28:49.178Z,71.87
2022-12-15T05:29:49.174Z,68.80
2022-12-15T05:30:49.202Z,67.03
2022-12-15T05:31:49.145Z,74.28
2022-12-15T05:32:49.910Z,65.74
2022-12-15T05:33:49.129Z,74.28
2022-12-15T05:34:49.118Z,72.67
2022-12-15T05:35:49.113Z,75.41
2022-12-15T05:36:49.104Z,72.35
2022-12-15T05:37:50.098Z,70.09
2022-12-15T05:38:49.105Z,72.99
2022-12-15T05:39:49.092Z,68.32
2022-12-15T05:40:50.038Z,70.90
2022-12-15T05:41:49.068Z,69.13
2022-12-15T05:42:50.266Z,70.74
2022-12-15T05:43:49.049Z,68.32
2022-12-15T05:44:49.046Z,73.96
2022-12-15T05:45:49.038Z,69.61
2022-12-15T05:46:49.045Z,69.29
2022-12-15T05:47:49.020Z,67.68
2022-12-15T05:48:49.004Z,68.80
2022-12-15T05:49:49.011Z,72.35
2022-12-15T05:50:49.020Z,70.25
2022-12-15T05:51:50.564Z,73.96
2022-12-15T05:52:49.633Z,69.29
2022-12-15T05:53:49.964Z,65.42
2022-12-15T05:54:48.961Z,75.73
2022-12-15T05:55:49.539Z,71.87
2022-12-15T05:56:49.980Z,78.79
2022-12-15T05:57:48.927Z,74.12
2022-12-15T05:58:48.928Z,65.74
2022-12-15T05:59:48.912Z,69.93
2022-12-15T06:00:48.911Z,75.41
2022-12-15T06:01:49.068Z,69.77
2022-12-15T06:02:50.025Z,71.54
2022-12-15T06:03:48.886Z,77.50
2022-12-15T06:04:48.966Z,71.70
2022-12-15T06:05:54.660Z,67.68
2022-12-15T06:06:50.864Z,69.45
2022-12-15T06:07:48.851Z,67.84
2022-12-15T06:08:50.182Z,71.87
2022-12-15T06:09:48.831Z,70.90
2022-12-15T06:10:48.838Z,68.96
2022-12-15T06:11:48.821Z,75.09
2022-12-15T06:12:48.864Z,72.51
2022-12-15T06:13:48.809Z,75.25
2022-12-15T06:14:49.807Z,78.96
2022-12-15T06:15:48.823Z,71.22
2022-12-15T06:16:50.810Z,76.05
2022-12-15T06:17:49.688Z,69.29
2022-12-15T06:18:50.253Z,70.09
2022-12-15T06:19:48.766Z,69.29
2022-12-15T06:20:49.723Z,77.99
2022-12-15T06:21:48.751Z,76.22
2022-12-15T06:22:50.076Z,72.19
2022-12-15T06:23:49.745Z,72.51
2022-12-15T06:24:48.740Z,74.93
2022-12-15T06:25:48.720Z,71.06
2022-12-15T06:26:49.504Z,72.03
2022-12-15T06:27:48.706Z,73.80
2022-12-15T06:28:48.701Z,77.34
2022-12-15T06:29:48.693Z,69.77
2022-12-15T06:30:48.687Z,71.54
2022-12-15T06:31:48.760Z,75.41
2022-12-15T06:32:49.880Z,73.80
2022-12-15T06:33:48.659Z,76.38
2022-12-15T06:34:48.652Z,76.38
2022-12-15T06:35:48.638Z,71.54
2022-12-15T06:36:48.630Z,75.09
2022-12-15T06:37:48.637Z,73.48
2022-12-15T06:38:50.029Z,77.34
2022-12-15T06:39:48.607Z,73.15
2022-12-15T06:40:48.604Z,70.09
2022-12-15T06:41:48.593Z,71.38
2022-12-15T06:42:48.591Z,77.67
2022-12-15T06:43:48.600Z,74.77
2022-12-15T06:44:48.586Z,71.38
2022-12-15T06:45:49.900Z,73.64
2022-12-15T06:46:48.572Z,70.25
2022-12-15T06:47:48.567Z,70.25
2022-12-15T06:48:48.534Z,72.51
2022-12-15T06:49:48.535Z,72.03
2022-12-15T06:50:50.148Z,72.99
2022-12-15T06:51:48.526Z,71.87
2022-12-15T06:52:48.506Z,71.22
2022-12-15T06:53:48.507Z,72.51
2022-12-15T06:54:49.487Z,72.99
2022-12-15T06:55:48.520Z,75.73
2022-12-15T06:56:49.860Z,77.18
2022-12-15T06:57:48.488Z,74.77
2022-12-15T06:58:48.464Z,75.09
2022-12-15T06:59:48.445Z,75.25
2022-12-15T07:00:48.439Z,75.57
2022-12-15T07:01:48.607Z,77.18
2022-12-15T07:02:50.330Z,77.02
2022-12-15T07:03:48.719Z,72.35
2022-12-15T07:04:48.411Z,72.99
2022-12-15T07:05:48.395Z,71.38
2022-12-15T07:06:48.421Z,71.70
2022-12-15T07:07:48.386Z,71.22
2022-12-15T07:08:48.379Z,72.83
2022-12-15T07:09:48.416Z,71.38
2022-12-15T07:10:48.362Z,81.69
2022-12-15T07:11:48.375Z,71.06
2022-12-15T07:12:48.353Z,72.51
2022-12-15T07:13:48.342Z,74.44
2022-12-15T07:14:53.217Z,75.09
2022-12-15T07:15:50.399Z,73.15
2022-12-15T07:16:48.361Z,74.12
2022-12-15T07:17:48.309Z,77.02
2022-12-15T07:18:48.314Z,76.70
2022-12-15T07:19:48.309Z,74.77
2022-12-15T07:20:49.954Z,75.09
2022-12-15T07:21:48.278Z,71.38
2022-12-15T07:22:48.274Z,71.38
2022-12-15T07:23:57.107Z,72.35
2022-12-15T07:24:50.262Z,75.57
2022-12-15T07:25:48.249Z,71.87
2022-12-15T07:26:49.069Z,71.06
2022-12-15T07:27:48.245Z,72.67
2022-12-15T07:28:48.246Z,72.67
2022-12-15T07:29:48.217Z,70.90
2022-12-15T07:30:48.211Z,74.12
2022-12-15T07:31:48.245Z,71.38
2022-12-15T07:32:50.196Z,71.06
2022-12-15T07:33:48.495Z,76.22
2022-12-15T07:34:48.178Z,70.58
2022-12-15T07:35:49.176Z,76.86
2022-12-15T07:36:52.052Z,71.06
2022-12-15T07:37:49.179Z,74.28
2022-12-15T07:38:50.572Z,67.84
2022-12-15T07:39:48.149Z,76.54
2022-12-15T07:40:48.149Z,70.90
2022-12-15T07:41:48.651Z,70.74
2022-12-15T07:42:48.126Z,71.06
2022-12-15T07:43:48.276Z,70.74
2022-12-15T07:44:50.008Z,74.93
2022-12-15T07:45:51.486Z,74.28
2022-12-15T07:46:49.153Z,71.70
2022-12-15T07:49:35.541Z,70.25
2022-12-15T07:50:35.504Z,71.54
2022-12-15T07:51:35.500Z,72.51
2022-12-15T07:52:35.495Z,74.28
2022-12-15T07:53:35.812Z,78.79
2022-12-15T07:54:35.480Z,73.96
2022-12-15T07:56:04.889Z,74.28
2022-12-15T07:56:39.367Z,74.44
2022-12-15T07:57:35.474Z,70.90
2022-12-15T07:58:35.497Z,71.38
2022-12-15T07:59:35.439Z,71.38
2022-12-15T08:00:35.438Z,71.22
2022-12-15T08:01:35.528Z,74.12
2022-12-15T08:02:35.570Z,75.41
2022-12-15T08:03:36.221Z,71.38
2022-12-15T08:04:35.407Z,72.19
2022-12-15T08:05:35.393Z,69.13
2022-12-15T08:06:35.393Z,74.28
2022-12-15T08:07:35.375Z,68.96
2022-12-15T08:08:35.991Z,71.38
2022-12-15T08:09:35.363Z,74.28
2022-12-15T08:10:35.351Z,70.09
2022-12-15T08:11:35.366Z,69.29
2022-12-15T08:12:35.340Z,69.77
2022-12-15T08:14:04.360Z,69.61
2022-12-15T08:14:36.322Z,69.45
2022-12-15T08:15:35.317Z,71.38
2022-12-15T08:16:35.368Z,73.15
2022-12-15T08:17:35.310Z,72.19
2022-12-15T08:18:35.293Z,69.77
2022-12-15T08:19:35.291Z,77.50
2022-12-15T08:20:35.283Z,78.79
2022-12-15T08:21:35.288Z,91.36
2022-12-15T08:22:35.263Z,72.51
2022-12-15T08:23:35.257Z,72.19
2022-12-15T08:24:35.258Z,73.15
2022-12-15T08:25:35.242Z,75.73
2022-12-15T08:26:35.238Z,77.18
2022-12-15T08:27:35.249Z,70.74
2022-12-15T08:28:35.218Z,72.99
2022-12-15T08:29:51.779Z,71.70
2022-12-15T08:30:36.205Z,71.54
2022-12-15T08:31:35.234Z,72.51
2022-12-15T08:32:36.317Z,71.54
2022-12-15T08:33:36.299Z,72.03
2022-12-15T08:34:36.275Z,72.99
2022-12-15T08:35:55.786Z,73.96
2022-12-15T08:36:38.254Z,77.99
2022-12-15T08:37:36.247Z,74.60
2022-12-15T08:38:36.238Z,71.22
2022-12-15T08:39:36.225Z,69.29
2022-12-15T08:40:36.217Z,68.80
2022-12-15T08:41:36.220Z,70.25
2022-12-15T08:42:36.216Z,72.03
2022-12-15T08:43:36.216Z,72.19
2022-12-15T08:44:36.195Z,72.83
2022-12-15T08:45:36.277Z,75.73
2022-12-15T08:46:36.881Z,71.70
2022-12-15T08:47:36.169Z,77.67
2022-12-15T08:48:36.188Z,74.93
2022-12-15T08:49:36.154Z,72.83
2022-12-15T08:50:37.145Z,72.99
2022-12-15T08:51:36.140Z,74.93
2022-12-15T08:52:36.133Z,73.32
2022-12-15T08:53:36.141Z,71.06
2022-12-15T08:54:36.119Z,72.83
2022-12-15T08:55:36.114Z,75.57
2022-12-15T08:56:36.109Z,73.64
2022-12-15T08:57:36.094Z,72.35
2022-12-15T08:58:36.286Z,71.70
2022-12-15T08:59:36.086Z,76.38
2022-12-15T09:00:36.072Z,74.77
2022-12-15T09:01:36.299Z,76.54
2022-12-15T09:02:37.008Z,75.73
2022-12-15T09:03:36.372Z,72.99
2022-12-15T09:04:37.075Z,80.73
2022-12-15T09:05:36.033Z,75.73
2022-12-15T09:06:36.043Z,72.83
2022-12-15T09:07:36.017Z,71.06
2022-12-15T09:08:36.011Z,71.54
2022-12-15T09:09:36.002Z,68.96
2022-12-15T09:10:35.988Z,72.67
2022-12-15T09:11:35.983Z,72.51
2022-12-15T09:12:35.980Z,71.38
2022-12-15T09:13:36.307Z,70.74
2022-12-15T09:14:35.970Z,69.93
2022-12-15T09:16:07.800Z,76.05
2022-12-15T09:16:38.922Z,72.03
2022-12-15T09:17:35.973Z,70.09
2022-12-15T09:18:35.937Z,70.09
2022-12-15T09:19:35.926Z,79.44
2022-12-15T09:20:35.979Z,73.48
2022-12-15T09:21:35.922Z,72.51
2022-12-15T09:22:35.909Z,75.41
2022-12-15T09:23:36.597Z,69.77
2022-12-15T09:24:35.903Z,73.32
2022-12-15T09:25:35.937Z,75.25
2022-12-15T09:26:35.886Z,71.38
2022-12-15T09:27:35.893Z,72.99
2022-12-15T09:28:35.861Z,72.99
2022-12-15T09:29:35.848Z,70.90
2022-12-15T09:30:35.903Z,73.96
2022-12-15T09:31:35.874Z,72.51
2022-12-15T09:32:36.828Z,74.77
2022-12-15T09:33:36.051Z,72.19
2022-12-15T09:34:35.852Z,74.28
2022-12-15T09:35:35.807Z,75.25
2022-12-15T09:36:35.810Z,72.35
2022-12-15T09:37:35.844Z,70.58
2022-12-15T09:38:35.791Z,74.12
2022-12-15T09:39:35.807Z,72.19
2022-12-15T09:40:35.780Z,72.67
2022-12-15T09:41:35.785Z,74.60
2022-12-15T09:42:35.759Z,73.64
2022-12-15T09:43:38.972Z,72.83
2022-12-15T09:44:37.748Z,71.70
2022-12-15T09:45:35.742Z,75.89
2022-12-15T09:46:35.765Z,71.87
2022-12-15T09:47:35.778Z,72.19
2022-12-15T09:48:35.714Z,71.54
2022-12-15T09:49:35.702Z,70.90
2022-12-15T09:50:35.695Z,73.96
2022-12-15T09:51:35.681Z,73.64
2022-12-15T09:52:35.705Z,72.03
2022-12-15T09:54:01.841Z,75.73
2022-12-15T09:54:37.767Z,72.03
2022-12-15T09:55:35.709Z,72.19
2022-12-15T09:56:35.654Z,70.74
2022-12-15T09:57:35.652Z,72.19
2022-12-15T09:58:36.387Z,70.42
2022-12-15T09:59:35.779Z,72.83
2022-12-15T10:00:35.615Z,71.38
2022-12-15T10:01:35.693Z,70.09
2022-12-15T10:02:35.695Z,71.70
2022-12-15T10:03:36.148Z,77.18
2022-12-15T10:04:35.695Z,72.67
2022-12-15T10:06:06.155Z,74.28
2022-12-15T10:06:37.574Z,70.90
2022-12-15T10:07:35.574Z,73.15
2022-12-15T10:08:35.572Z,73.48
2022-12-15T10:09:36.557Z,70.74
2022-12-15T10:10:35.544Z,72.99
2022-12-15T10:11:35.536Z,74.77
2022-12-15T10:12:36.459Z,75.73
2022-12-15T10:13:35.529Z,70.74
2022-12-15T10:14:35.510Z,69.93
2022-12-15T10:15:35.631Z,74.93
2022-12-15T10:16:35.498Z,72.03
2022-12-15T10:17:35.486Z,71.70
2022-12-15T10:18:35.498Z,72.51
2022-12-15T10:19:35.482Z,72.35
2022-12-15T10:20:35.465Z,74.77
2022-12-15T10:21:35.534Z,74.77
2022-12-15T10:22:35.459Z,77.02
2022-12-15T10:23:36.101Z,72.99
2022-12-15T10:25:08.736Z,77.02
2022-12-15T10:25:37.433Z,72.35
2022-12-15T10:26:35.425Z,74.77
2022-12-15T10:27:35.410Z,72.35
2022-12-15T10:28:36.343Z,72.03
2022-12-15T10:29:35.463Z,71.38
2022-12-15T10:30:36.488Z,72.67
2022-12-15T10:31:35.415Z,72.83
2022-12-15T10:32:40.981Z,73.48
2022-12-15T10:33:37.375Z,72.99
2022-12-15T10:34:35.412Z,76.05
2022-12-15T10:35:35.366Z,71.87
2022-12-15T10:36:35.341Z,75.41
2022-12-15T10:37:35.334Z,72.03
2022-12-15T10:38:35.334Z,71.87
2022-12-15T10:39:35.318Z,72.35
2022-12-15T10:40:36.314Z,77.99
2022-12-15T10:41:35.305Z,70.90
2022-12-15T10:42:35.293Z,68.48
2022-12-15T10:43:36.170Z,69.93
2022-12-15T10:44:35.282Z,69.77
2022-12-15T10:45:35.280Z,72.67
2022-12-15T10:46:35.302Z,72.67
2022-12-15T10:47:35.256Z,77.18
2022-12-15T10:48:35.254Z,71.38
2022-12-15T10:49:35.248Z,71.38
2022-12-15T10:50:35.240Z,73.96
2022-12-15T10:51:35.249Z,72.35
2022-12-15T10:52:35.285Z,73.32
2022-12-15T10:53:35.474Z,73.48
2022-12-15T10:54:35.201Z,76.05
2022-12-15T10:55:35.205Z,72.19
2022-12-15T10:56:35.193Z,69.93
2022-12-15T10:57:35.198Z,77.99
2022-12-15T10:58:35.179Z,73.48
2022-12-15T10:59:35.235Z,71.87
2022-12-15T11:00:35.161Z,81.53
2022-12-15T11:01:35.413Z,78.47
2022-12-15T11:02:35.371Z,72.51
2022-12-15T11:03:35.953Z,72.67
2022-12-15T11:04:35.215Z,104.25
2022-12-15T11:05:35.116Z,73.32
2022-12-15T11:06:35.117Z,73.48
2022-12-15T11:07:35.110Z,71.38
2022-12-15T11:08:35.115Z,69.77
2022-12-15T11:09:35.961Z,71.87
2022-12-15T11:10:35.086Z,69.29
2022-12-15T11:11:35.108Z,72.51
2022-12-15T11:12:35.069Z,72.19
2022-12-15T11:13:35.369Z,68.64
2022-12-15T11:14:36.063Z,70.09
2022-12-15T11:15:35.099Z,70.90
2022-12-15T11:16:35.043Z,71.54
2022-12-15T11:17:35.029Z,72.35
2022-12-15T11:18:35.063Z,70.74
2022-12-15T11:19:35.487Z,76.38
2022-12-15T11:20:35.009Z,77.99
2022-12-15T11:21:35.000Z,75.57
2022-12-15T11:22:34.993Z,72.03
2022-12-15T11:23:35.706Z,72.67
2022-12-15T11:24:34.982Z,70.90
2022-12-15T11:25:34.981Z,74.28
2022-12-15T11:26:34.957Z,75.25
2022-12-15T11:27:35.032Z,72.19
2022-12-15T11:28:34.945Z,74.93
2022-12-15T11:29:34.933Z,70.42
2022-12-15T11:30:34.938Z,74.28
2022-12-15T11:31:34.923Z,70.74
2022-12-15T11:32:34.919Z,72.51
2022-12-15T11:33:35.594Z,72.19
2022-12-15T11:34:34.922Z,74.77
2022-12-15T11:35:34.887Z,73.48
2022-12-15T11:36:34.880Z,77.02
2022-12-15T11:37:36.779Z,74.77
2022-12-15T11:38:36.001Z,74.77
2022-12-15T11:39:34.894Z,70.42
2022-12-15T11:40:34.849Z,71.22
2022-12-15T11:41:34.839Z,74.28
2022-12-15T11:42:34.833Z,76.38
2022-12-15T11:43:35.465Z,72.19
2022-12-15T11:44:34.849Z,72.03
2022-12-15T11:45:34.819Z,72.19
2022-12-15T11:46:34.822Z,78.31
2022-12-15T11:47:34.798Z,71.87
2022-12-15T11:48:34.827Z,70.90
2022-12-15T11:49:40.783Z,71.87
2022-12-15T11:50:36.781Z,75.89
2022-12-15T11:51:34.779Z,73.64
2022-12-15T11:52:34.755Z,74.77
2022-12-15T11:53:35.484Z,73.15
2022-12-15T11:54:34.742Z,73.64
2022-12-15T11:55:41.060Z,77.67
2022-12-15T11:56:37.394Z,73.15
2022-12-15T11:57:34.722Z,71.54
2022-12-15T11:58:36.321Z,71.87
2022-12-15T11:59:34.711Z,70.74
2022-12-15T12:00:34.689Z,72.19
2022-12-15T12:01:34.706Z,73.80
2022-12-15T12:02:34.874Z,71.70
2022-12-15T12:03:34.679Z,74.44
2022-12-15T12:04:34.676Z,76.54
2022-12-15T12:05:34.778Z,72.67
2022-12-15T12:06:34.671Z,75.25
2022-12-15T12:07:41.527Z,71.87
2022-12-15T12:08:36.691Z,72.67
2022-12-15T12:09:35.636Z,76.38
2022-12-15T12:10:34.612Z,72.99
2022-12-15T12:11:36.452Z,71.54
2022-12-15T12:12:34.602Z,72.51
2022-12-15T12:13:34.653Z,74.77
2022-12-15T12:14:35.387Z,75.73
2022-12-15T12:15:34.575Z,72.51
2022-12-15T12:16:34.567Z,75.57
2022-12-15T12:17:34.581Z,70.74
2022-12-15T12:18:35.010Z,77.02
2022-12-15T12:19:34.626Z,74.12
2022-12-15T12:20:34.557Z,75.41
2022-12-15T12:21:34.562Z,77.99
2022-12-15T12:22:35.524Z,81.69
2022-12-15T12:23:34.516Z,71.38
2022-12-15T12:24:34.547Z,71.87
2022-12-15T12:25:34.543Z,74.28
2022-12-15T12:26:35.532Z,71.70
2022-12-15T12:27:34.490Z,76.86
2022-12-15T12:28:35.048Z,70.90
2022-12-15T12:29:34.492Z,72.67
2022-12-15T12:30:34.476Z,73.80
2022-12-15T12:31:34.470Z,71.70
2022-12-15T12:32:34.451Z,74.44
2022-12-15T12:33:35.000Z,75.09
2022-12-15T12:34:34.443Z,73.15
2022-12-15T12:35:34.433Z,73.80
2022-12-15T12:36:34.426Z,76.38
2022-12-15T12:37:34.411Z,74.28
2022-12-15T12:38:35.765Z,73.80
2022-12-15T12:39:34.397Z,72.51
2022-12-15T12:40:34.394Z,70.90
2022-12-15T12:41:35.996Z,71.70
2022-12-15T12:42:34.370Z,72.51
2022-12-15T12:43:35.160Z,72.99
2022-12-15T12:44:34.354Z,73.15
2022-12-15T12:45:34.374Z,70.74
2022-12-15T12:46:34.366Z,72.51
2022-12-15T12:47:34.363Z,70.25
2022-12-15T12:48:34.319Z,70.58
2022-12-15T12:49:34.370Z,72.51
2022-12-15T12:50:34.348Z,71.87
2022-12-15T12:51:34.338Z,74.77
2022-12-15T12:52:34.294Z,71.06
2022-12-15T12:54:09.924Z,73.32
2022-12-15T12:54:34.290Z,72.67
2022-12-15T12:55:36.026Z,74.28
2022-12-15T12:56:35.980Z,80.24